createdAt,value
2019-04-21T00:02:50.935Z,19.82
2019-04-21T00:05:43.180Z,19.37
2019-04-21T00:08:27.144Z,20.00
2019-04-21T00:11:00.454Z,22.62
2019-04-21T00:13:27.707Z,21.02
2019-04-21T00:15:53.775Z,21.27
2019-04-21T00:18:48.491Z,22.05
2019-04-21T00:21:36.478Z,26.70
2019-04-21T00:24:34.729Z,29.48
2019-04-21T00:27:18.490Z,20.00
2019-04-21T00:29:52.100Z,23.25
2019-04-21T00:32:21.864Z,20.17
2019-04-21T00:34:52.280Z,31.02
2019-04-21T00:37:58.851Z,30.68
2019-04-21T00:40:52.651Z,36.70
2019-04-21T00:45:49.122Z,33.38
2019-04-21T00:48:36.372Z,34.65
2019-04-21T00:51:25.185Z,33.15
2019-04-21T00:54:14.217Z,33.35
2019-04-21T00:57:14.497Z,32.55
2019-04-21T00:59:47.873Z,33.13
2019-04-21T01:02:26.125Z,30.55
2019-04-21T01:05:06.404Z,36.58
2019-04-21T01:07:38.525Z,30.97
2019-04-21T01:10:03.797Z,30.05
2019-04-21T01:12:53.595Z,32.30
2019-04-21T01:15:35.199Z,31.80
2019-04-21T01:18:09.032Z,58.50
2019-04-21T01:20:26.140Z,41.20
2019-04-21T01:23:00.410Z,33.85
2019-04-21T01:26:01.922Z,34.15
2019-04-21T01:28:41.037Z,35.90
2019-04-21T01:31:15.409Z,27.15
2019-04-21T01:36:29.784Z,31.77
2019-04-21T01:39:16.258Z,25.52
2019-04-21T01:42:03.505Z,32.95
2019-04-21T01:44:46.202Z,37.95
2019-04-21T01:47:16.014Z,35.35
2019-04-21T01:49:52.303Z,32.10
2019-04-21T01:55:12.653Z,25.25
2019-04-21T01:57:57.582Z,40.28
2019-04-21T02:00:45.075Z,25.77
2019-04-21T02:06:04.477Z,29.30
2019-04-21T02:08:37.622Z,22.85
2019-04-21T02:11:16.920Z,22.05
2019-04-21T02:13:57.599Z,20.68
2019-04-21T02:16:31.405Z,20.95
2019-04-21T02:18:58.106Z,22.35
2019-04-21T02:21:44.857Z,21.37
2019-04-21T02:24:49.610Z,22.67
2019-04-21T02:27:23.732Z,20.97
2019-04-21T02:30:02.829Z,17.45
2019-04-21T02:32:45.792Z,15.13
2019-04-21T02:35:38.387Z,21.70
2019-04-21T02:38:01.292Z,18.77
2019-04-21T02:40:44.079Z,23.47
2019-04-21T02:43:13.504Z,14.43
2019-04-21T02:45:51.591Z,24.85
2019-04-21T02:50:52.991Z,22.30
2019-04-21T02:56:20.428Z,21.80
2019-04-21T02:59:05.181Z,16.95
2019-04-21T03:01:48.954Z,25.08
2019-04-21T03:07:42.782Z,20.23
2019-04-21T03:10:17.838Z,16.73
2019-04-21T03:13:06.060Z,19.52
2019-04-21T03:21:10.836Z,18.67
2019-04-21T03:23:52.305Z,16.95
2019-04-21T03:29:37.079Z,24.40
2019-04-21T03:32:36.577Z,20.23
2019-04-21T03:35:40.323Z,18.95
2019-04-21T03:45:42.352Z,18.80
2019-04-21T03:48:36.201Z,20.48
2019-04-21T03:50:57.965Z,13.45
2019-04-21T03:59:12.685Z,17.77
2019-04-21T04:02:16.577Z,16.37
2019-04-21T04:05:07.296Z,17.50
2019-04-21T04:10:28.798Z,15.70
2019-04-21T04:13:09.450Z,25.82
2019-04-21T04:21:44.245Z,17.27
2019-04-21T04:24:09.155Z,17.23
2019-04-21T04:35:26.396Z,19.40
2019-04-21T04:37:55.529Z,15.70
2019-04-21T04:40:39.432Z,16.70
2019-04-21T04:43:31.137Z,22.13
2019-04-21T04:46:33.459Z,19.57
2019-04-21T05:01:06.210Z,18.20
2019-04-21T05:03:47.225Z,16.55
2019-04-21T05:14:21.505Z,20.02
2019-04-21T05:17:18.929Z,20.95
2019-04-21T05:22:35.341Z,16.60
2019-04-21T05:25:08.608Z,30.17
2019-04-21T05:27:43.395Z,18.23
2019-04-21T05:33:12.432Z,22.10
2019-04-21T05:44:03.750Z,21.60
2019-04-21T05:46:50.654Z,26.93
2019-04-21T05:51:44.277Z,17.80
2019-04-21T05:57:10.180Z,23.80
2019-04-21T05:59:49.085Z,17.67
2019-04-21T06:02:27.311Z,17.73
2019-04-21T06:05:07.210Z,18.60
2019-04-21T06:20:51.554Z,16.70
2019-04-21T06:23:20.934Z,15.08
2019-04-21T06:26:19.751Z,13.58
2019-04-21T06:28:28.740Z,16.30
2019-04-21T06:31:09.716Z,18.40
2019-04-21T06:46:21.337Z,31.50
2019-04-21T06:48:53.699Z,17.75
2019-04-21T06:51:24.085Z,14.98
2019-04-21T06:53:53.994Z,21.15
2019-04-21T06:56:24.141Z,19.37
2019-04-21T07:11:08.360Z,17.48
2019-04-21T07:14:16.196Z,21.55
2019-04-21T07:16:41.565Z,19.70
2019-04-21T07:30:14.890Z,16.67
2019-04-21T07:32:55.376Z,14.10
2019-04-21T07:35:31.845Z,16.80
2019-04-21T07:38:16.729Z,15.43
2019-04-21T07:43:18.214Z,17.12
2019-04-21T07:45:58.843Z,15.90
2019-04-21T07:48:55.684Z,15.48
2019-04-21T08:07:37.615Z,14.75
2019-04-21T08:20:13.921Z,22.77
2019-04-21T08:22:48.010Z,15.72
2019-04-21T08:25:46.090Z,21.73
2019-04-21T08:28:46.910Z,16.52
2019-04-21T08:31:24.086Z,14.85
2019-04-21T08:34:00.742Z,17.15
2019-04-21T08:36:44.870Z,17.55
2019-04-21T08:39:08.759Z,12.50
2019-04-21T08:42:06.809Z,18.27
2019-04-21T08:44:43.096Z,25.48
2019-04-21T08:47:12.878Z,20.92
2019-04-21T08:49:41.135Z,20.25
2019-04-21T08:55:15.607Z,17.73
2019-04-21T09:06:58.599Z,15.38
2019-04-21T09:09:26.956Z,18.62
2019-04-21T09:12:01.354Z,17.05
2019-04-21T09:14:36.411Z,13.78
2019-04-21T09:17:28.672Z,15.53
2019-04-21T09:23:13.381Z,15.90
2019-04-21T09:25:57.424Z,20.80
2019-04-21T09:28:28.836Z,17.45
2019-04-21T09:31:17.957Z,16.50
2019-04-21T09:34:21.999Z,17.12
2019-04-21T09:42:36.060Z,18.27
2019-04-21T09:45:07.893Z,18.73
2019-04-21T09:48:02.707Z,18.98
2019-04-21T09:50:31.811Z,30.62
2019-04-21T09:56:01.050Z,22.50
2019-04-21T09:58:40.026Z,20.75
2019-04-21T10:01:18.541Z,15.85
2019-04-21T10:03:53.329Z,21.17
2019-04-21T10:06:25.966Z,20.55
2019-04-21T10:09:04.226Z,20.35
2019-04-21T10:11:38.043Z,25.43
2019-04-21T10:14:13.790Z,21.40
2019-04-21T10:16:49.907Z,20.35
2019-04-21T10:19:33.983Z,15.08
2019-04-21T10:22:17.023Z,19.00
2019-04-21T10:24:54.566Z,19.15
2019-04-21T10:27:52.841Z,12.88
2019-04-21T10:30:42.347Z,17.05
2019-04-21T10:33:18.777Z,15.53
2019-04-21T10:35:57.383Z,16.17
2019-04-21T10:38:52.212Z,16.82
2019-04-21T10:41:27.475Z,18.85
2019-04-21T10:49:26.638Z,16.97
2019-04-21T10:57:46.941Z,20.52
2019-04-21T11:00:24.028Z,16.93
2019-04-21T11:08:32.342Z,12.90
2019-04-21T11:13:46.621Z,20.10
2019-04-21T11:25:11.147Z,17.48
2019-04-21T11:27:47.221Z,14.23
2019-04-21T11:30:25.620Z,29.52
2019-04-21T11:33:03.664Z,17.90
2019-04-21T11:35:41.284Z,22.87
2019-04-21T11:39:06.206Z,19.62
2019-04-21T11:41:47.743Z,23.83
2019-04-21T11:44:27.001Z,16.97
2019-04-21T11:47:06.759Z,15.08
2019-04-21T11:49:45.278Z,17.87
2019-04-21T11:52:27.607Z,20.68
2019-04-21T11:55:12.914Z,13.35
2019-04-21T11:57:55.222Z,20.27
2019-04-21T12:00:35.856Z,37.67
2019-04-21T12:03:15.163Z,43.15
2019-04-21T12:09:01.292Z,22.50
2019-04-21T12:12:05.253Z,22.60
2019-04-21T12:14:52.227Z,23.90
2019-04-21T12:17:27.870Z,20.32
2019-04-21T12:20:03.275Z,21.20
2019-04-21T12:22:45.214Z,18.35
2019-04-21T12:25:27.256Z,18.80
2019-04-21T12:30:51.580Z,21.25
2019-04-21T12:36:35.832Z,21.30
2019-04-21T12:39:12.862Z,22.15
2019-04-21T12:41:50.826Z,21.15
2019-04-21T12:44:35.401Z,15.98
2019-04-21T12:56:00.160Z,22.50
2019-04-21T12:58:37.392Z,17.70
2019-04-21T13:01:23.076Z,17.07
2019-04-21T13:04:11.256Z,16.97
2019-04-21T13:06:46.141Z,17.95
2019-04-21T13:09:24.467Z,17.45
2019-04-21T13:12:04.805Z,19.37
2019-04-21T13:14:39.946Z,17.20
2019-04-21T13:17:23.518Z,15.35
2019-04-21T13:19:59.083Z,18.60
2019-04-21T13:22:37.506Z,14.73
2019-04-21T13:25:14.359Z,13.58
2019-04-21T13:27:49.958Z,15.95
2019-04-21T13:30:28.414Z,17.45
2019-04-21T13:33:07.121Z,17.37
2019-04-21T13:36:05.011Z,19.62
2019-04-21T13:39:09.639Z,17.05
2019-04-21T13:41:40.874Z,20.02
2019-04-21T13:44:15.602Z,18.67
2019-04-21T13:46:54.429Z,24.43
2019-04-21T13:49:31.551Z,15.95
2019-04-21T13:52:13.006Z,17.32
2019-04-21T13:54:57.909Z,17.98
2019-04-21T13:57:40.948Z,15.75
2019-04-21T14:00:24.092Z,21.50
2019-04-21T14:03:04.636Z,14.70
2019-04-21T14:05:42.338Z,15.23
2019-04-21T14:08:41.634Z,15.08
2019-04-21T14:11:20.376Z,15.90
2019-04-21T14:13:58.594Z,15.10
2019-04-21T14:16:58.317Z,12.53
2019-04-21T14:22:42.190Z,15.70
2019-04-21T14:25:17.454Z,16.73
2019-04-21T14:27:57.882Z,13.98
2019-04-21T14:30:36.501Z,16.65
2019-04-21T14:33:16.062Z,16.35
2019-04-21T14:35:52.721Z,17.15
2019-04-21T14:38:42.719Z,18.12
2019-04-21T14:41:22.168Z,21.62
2019-04-21T14:44:00.662Z,21.50
2019-04-21T14:46:39.446Z,21.17
2019-04-21T14:49:26.949Z,20.30
2019-04-21T14:52:26.834Z,18.05
2019-04-21T14:55:26.913Z,20.08
2019-04-21T14:58:03.256Z,22.37
2019-04-21T15:00:55.703Z,20.02
2019-04-21T15:06:45.516Z,20.88
2019-04-21T15:09:41.196Z,24.87
2019-04-21T15:12:18.587Z,22.40
2019-04-21T15:14:58.441Z,26.30
2019-04-21T15:17:37.873Z,19.62
2019-04-21T15:20:17.325Z,19.48
2019-04-21T15:22:56.483Z,20.90
2019-04-21T15:25:32.353Z,19.02
2019-04-21T15:31:28.732Z,16.65
2019-04-21T15:34:01.170Z,21.85
2019-04-21T15:36:55.725Z,20.72
2019-04-21T15:39:35.062Z,19.70
2019-04-21T15:42:14.570Z,19.67
2019-04-21T15:45:03.024Z,17.48
2019-04-21T15:47:53.775Z,18.92
2019-04-21T15:50:33.882Z,19.30
2019-04-21T15:53:13.991Z,19.40
2019-04-21T15:56:02.449Z,15.88
2019-04-21T15:59:08.476Z,19.95
2019-04-21T16:01:52.430Z,18.92
2019-04-21T16:24:33.828Z,19.25
2019-04-21T16:27:12.497Z,21.15
2019-04-21T16:29:54.193Z,20.30
2019-04-21T16:32:49.884Z,22.07
2019-04-21T16:35:26.682Z,18.57
2019-04-21T16:38:17.619Z,22.62
2019-04-21T16:40:58.288Z,19.25
2019-04-21T16:43:43.029Z,24.67
2019-04-21T16:46:19.895Z,20.37
2019-04-21T16:48:57.876Z,24.27
2019-04-21T16:51:36.449Z,21.85
2019-04-21T16:54:17.691Z,25.88
2019-04-21T16:57:19.984Z,26.12
2019-04-21T16:59:56.771Z,22.80
2019-04-21T17:02:34.905Z,23.57
2019-04-21T17:05:10.330Z,22.42
2019-04-21T17:07:49.079Z,23.32
2019-04-21T17:10:26.600Z,29.70
2019-04-21T17:13:24.561Z,26.20
2019-04-21T17:16:44.847Z,25.92
2019-04-21T17:19:05.222Z,31.45
2019-04-21T17:21:45.690Z,27.10
2019-04-21T17:24:22.117Z,28.42
2019-04-21T17:26:59.595Z,27.55
2019-04-21T17:29:46.345Z,25.92
2019-04-21T17:32:24.285Z,24.75
2019-04-21T17:35:01.955Z,23.32
2019-04-21T17:38:03.874Z,22.00
2019-04-21T17:40:45.579Z,26.15
2019-04-21T17:43:21.755Z,27.90
2019-04-21T17:45:57.443Z,24.05
2019-04-21T17:54:33.188Z,24.00
2019-04-21T17:57:39.269Z,23.75
2019-04-21T18:00:25.860Z,20.62
2019-04-21T18:02:53.799Z,28.45
2019-04-21T18:05:32.144Z,25.08
2019-04-21T18:08:18.465Z,24.85
2019-04-21T18:11:07.568Z,23.02
2019-04-21T18:13:34.640Z,21.77
2019-04-21T18:16:36.402Z,23.40
2019-04-21T18:19:07.042Z,22.50
2019-04-21T18:21:54.781Z,23.12
2019-04-21T18:24:35.313Z,22.22
2019-04-21T18:27:04.292Z,26.73
2019-04-21T18:29:48.847Z,22.17
2019-04-21T18:35:35.829Z,22.90
2019-04-21T18:38:16.963Z,21.75
2019-04-21T18:40:57.890Z,23.35
2019-04-21T18:46:52.532Z,21.82
2019-04-21T18:49:38.536Z,22.10
2019-04-21T18:52:45.312Z,21.15
2019-04-21T18:55:18.993Z,21.97
2019-04-21T18:57:47.919Z,20.30
2019-04-21T19:00:28.802Z,22.20
2019-04-21T19:02:57.692Z,23.75
2019-04-21T19:05:47.794Z,23.25
2019-04-21T19:08:40.555Z,23.00
2019-04-21T19:11:15.937Z,22.35
2019-04-21T19:14:19.757Z,24.20
2019-04-21T19:22:11.752Z,27.13
2019-04-21T19:24:48.593Z,25.10
2019-04-21T19:30:05.130Z,23.00
2019-04-21T19:32:33.517Z,24.23
2019-04-21T19:34:57.672Z,25.72
2019-04-21T19:37:30.160Z,27.13
2019-04-21T19:40:29.051Z,25.08
2019-04-21T19:42:55.833Z,24.07
2019-04-21T19:45:33.849Z,23.15
2019-04-21T19:48:13.674Z,23.80
2019-04-21T19:50:52.998Z,25.35
2019-04-21T19:53:28.593Z,25.48
2019-04-21T19:55:42.410Z,28.23
2019-04-21T19:58:19.468Z,23.80
2019-04-21T20:00:55.544Z,23.95
2019-04-21T20:03:28.407Z,23.38
2019-04-21T20:06:11.808Z,27.17
2019-04-21T20:08:59.111Z,24.07
2019-04-21T20:11:34.721Z,24.77
2019-04-21T20:14:37.638Z,23.18
2019-04-21T20:16:44.359Z,25.62
2019-04-21T20:19:24.839Z,25.27
2019-04-21T20:21:59.082Z,27.27
2019-04-21T20:24:35.717Z,24.63
2019-04-21T20:27:38.858Z,21.80
2019-04-21T20:30:21.717Z,23.35
2019-04-21T20:33:01.421Z,23.30
2019-04-21T20:35:43.335Z,25.95
2019-04-21T20:38:19.258Z,26.55
2019-04-21T20:40:57.012Z,24.50
2019-04-21T20:46:15.575Z,22.10
2019-04-21T20:48:45.261Z,23.95
2019-04-21T20:51:23.570Z,22.70
2019-04-21T20:54:08.634Z,21.52
2019-04-21T20:57:06.168Z,22.32
2019-04-21T20:59:31.767Z,22.80
2019-04-21T21:02:10.192Z,25.15
2019-04-21T21:04:51.542Z,21.55
2019-04-21T21:07:44.156Z,25.17
2019-04-21T21:10:34.838Z,26.45
2019-04-21T21:13:14.535Z,26.02
2019-04-21T21:15:51.437Z,26.50
2019-04-21T21:18:38.553Z,24.12
2019-04-21T21:20:55.613Z,26.48
2019-04-21T21:23:33.309Z,25.70
2019-04-21T21:26:09.711Z,25.17
2019-04-21T21:28:37.166Z,23.38
2019-04-21T21:31:24.573Z,23.73
2019-04-21T21:33:58.526Z,26.90
2019-04-21T21:36:47.721Z,30.43
2019-04-21T21:39:21.506Z,31.65
2019-04-21T21:41:49.756Z,24.37
2019-04-21T21:44:30.213Z,26.93
2019-04-21T21:47:14.427Z,32.33
2019-04-21T21:49:54.079Z,25.82
2019-04-21T21:52:30.414Z,24.47
2019-04-21T21:55:01.608Z,25.30
2019-04-21T21:57:44.527Z,30.65
2019-04-21T22:00:15.451Z,26.15
2019-04-21T22:02:51.684Z,24.15
2019-04-21T22:05:45.575Z,25.20
2019-04-21T22:08:12.387Z,28.95
2019-04-21T22:11:07.242Z,28.45
2019-04-21T22:13:47.607Z,30.12
2019-04-21T22:16:38.847Z,30.23
2019-04-21T22:19:20.272Z,34.83
2019-04-21T22:22:11.544Z,34.20
2019-04-21T22:24:46.927Z,37.58
2019-04-21T22:27:05.461Z,38.92
2019-04-21T22:30:03.348Z,40.23
2019-04-21T22:32:38.653Z,38.33
2019-04-21T22:35:23.887Z,38.80
2019-04-21T22:38:02.044Z,35.98
2019-04-21T22:40:42.978Z,39.23
2019-04-21T22:43:28.419Z,42.40
2019-04-21T22:49:03.753Z,43.45
2019-04-21T22:51:38.422Z,40.45
2019-04-21T22:54:12.826Z,42.75
2019-04-21T22:57:01.636Z,41.20
2019-04-21T22:59:32.437Z,43.23
2019-04-21T23:02:13.674Z,31.80
2019-04-21T23:04:46.222Z,41.02
2019-04-21T23:08:03.435Z,46.30
2019-04-21T23:10:27.304Z,32.75
2019-04-21T23:13:45.076Z,39.13
2019-04-21T23:16:28.033Z,32.20
2019-04-21T23:19:25.738Z,37.38
2019-04-21T23:22:03.027Z,56.68
2019-04-21T23:24:39.937Z,56.42
2019-04-21T23:27:15.519Z,146.93
2019-04-21T23:30:08.101Z,83.42
2019-04-21T23:32:30.462Z,118.33
2019-04-21T23:34:53.943Z,94.35
2019-04-21T23:37:54.301Z,71.35
2019-04-21T23:40:24.144Z,105.63
2019-04-21T23:43:00.073Z,44.33
2019-04-21T23:45:37.717Z,51.88
2019-04-21T23:48:18.509Z,36.60
2019-04-21T23:51:16.040Z,36.30
2019-04-21T23:53:39.353Z,33.75
2019-04-21T23:56:21.801Z,31.60
2019-04-21T23:59:14.658Z,31.12
